Latest Weather Observations for Coondewanna

IDW60801

Issued at 6:05 am WST Wednesday 24 September 2014 (issued every 30 minutes, with the page automatically refreshed every 10 minutes)

About weather observations | Map of weather stations | Latest weather observations for WA | Other Formats
Station Details ID: 505051 Name: COONDEWANNA Lat: -22.96 Lon: 118.81 Height: 697.63 m
Data from the previous 72 hours. | See also: Recent months for locations in Western Australia
Date/Time
WST
Temp
°C
App
Temp
°C
Dew
Point
Rel
Hum
%
Delta-T
°C
Wind Press
QNH
hPa
Press
MSL
hPa
Rain
since 9 am
mm
Dir
 
Spd
km/h
Gust
km/h
Spd
kts
Gust
kts
24/06:00am 11.9 7.3 -4.2 32 6.2 ENE 11 15 6 8 1023.2 1019.9 0.0
24/05:30am 11.3 7.0 -4.8 32 6.1 ENE 9 11 5 6 1022.7 1019.5 0.0
24/05:00am 12.8 7.0 -4.3 30 6.7 E 17 20 9 11 1022.4 1019.2 0.0
24/04:30am 10.1 7.5 -5.4 33 5.7 CALM 0 6 0 3 1022.2 1019.0 0.0
24/04:00am 11.1 8.5 -5.4 31 6.2 CALM 0 0 0 0 1021.9 1018.6 0.0
24/03:30am 13.2 8.5 -5.4 27 7.1 SE 11 13 6 7 1021.6 1018.3 0.0
24/03:00am 13.7 7.8 -5.4 26 7.3 ESE 17 20 9 11 1021.7 1018.4 0.0
24/02:30am 14.3 8.4 -5.4 25 7.7 ESE 17 22 9 12 1021.8 1018.5 0.0
24/02:00am 15.0 9.1 -5.4 24 8.0 E 17 22 9 12 1021.8 1018.5 0.0
24/01:30am 15.4 8.9 -5.6 23 8.2 ESE 20 26 11 14 1021.9 1018.6 0.0
24/01:00am 15.6 9.3 -5.4 23 8.2 ESE 19 22 10 12 1022.1 1018.9 0.0
24/12:30am 15.8 10.3 -5.3 23 8.4 E 15 20 8 11 1022.3 1019.1 0.0
24/12:00am 16.0 10.9 -5.1 23 8.4 ENE 13 17 7 9 1022.5 1019.3 0.0
 
Date/Time
WST
Temp
°C
App
Temp
°C
Dew
Point
Rel
Hum
%
Delta-T
°C
Wind Press
QNH
hPa
Press
MSL
hPa
Rain
since 9 am
mm
Dir
 
Spd
km/h
Gust
km/h
Spd
kts
Gust
kts
23/11:30pm 16.2 11.5 -5.5 22 8.6 E 11 15 6 8 1022.7 1019.5 0.0
23/11:00pm 16.9 11.0 -5.5 21 8.9 ESE 17 20 9 11 1022.6 1019.4 0.0
23/10:59pm 17.0 11.1 -5.5 21 9.0 ESE 17 20 9 11 1022.6 1019.4 0.0
23/10:39pm 17.3 11.0 -5.8 20 9.2 ESE 19 22 10 12 1022.7 1019.5 0.0
23/10:30pm 17.6 11.3 -5.6 20 9.3 ESE 19 22 10 12 1022.7 1019.5 0.0
23/10:16pm 18.0 11.8 -5.3 20 9.4 ESE 19 22 10 12 1022.7 1019.5 0.0
23/10:00pm 18.1 12.2 -5.9 19 9.6 ESE 17 22 9 12 1022.7 1019.5 0.0
23/09:57pm 18.1 12.2 -5.9 19 9.6 ESE 17 20 9 11 1022.7 1019.5 0.0
23/09:55pm 18.1 12.2 -5.9 19 9.6 ESE 17 20 9 11 1022.7 1019.5 0.0
23/09:40pm 18.3 12.8 -5.7 19 9.7 ESE 15 19 8 10 1022.6 1019.4 0.0
23/09:30pm 18.3 12.8 -5.7 19 9.7 ESE 15 19 8 10 1022.6 1019.4 0.0
23/09:00pm 18.5 13.0 -5.5 19 9.7 ESE 15 17 8 9 1022.4 1019.2 0.0
23/08:30pm 18.8 13.2 -6.0 18 10.0 ESE 15 17 8 9 1022.2 1019.0 0.0
23/08:00pm 19.3 14.2 -5.6 18 10.1 ESE 13 15 7 8 1022.1 1018.9 0.0
23/07:30pm 20.4 14.9 -5.4 17 10.7 SE 15 17 8 9 1021.6 1018.3 0.0
23/07:00pm 21.4 15.9 -5.4 16 11.2 SE 15 17 8 9 1021.0 1017.8 0.0
23/06:30pm 22.1 16.9 -5.7 15 11.6 ESE 13 15 7 8 1020.5 1017.2 0.0
23/06:00pm 23.6 17.6 -6.4 13 12.5 ESE 17 20 9 11 1020.2 1016.9 0.0
23/05:30pm 24.6 18.2 -6.7 12 13.1 ESE 19 24 10 13 1019.8 1016.5 0.0
23/05:00pm 25.0 19.4 -6.3 12 13.3 SE 15 24 8 13 1019.6 1016.4 0.0
23/04:30pm 25.3 18.8 -6.1 12 13.4 ESE 20 30 11 16 1019.4 1016.1 0.0
23/04:00pm 26.1 20.2 -5.5 12 13.7 ESE 17 28 9 15 1019.2 1015.9 0.0
23/03:30pm 25.3 19.4 -6.1 12 13.4 S 17 22 9 12 1019.1 1015.8 0.0
23/03:00pm 25.2 18.3 -6.2 12 13.3 ESE 22 32 12 17 1019.2 1015.9 0.0
23/02:30pm 25.3 18.8 -6.1 12 13.4 E 20 28 11 15 1019.5 1016.3 0.0
23/02:00pm 24.6 18.4 -4.6 14 12.7 E 19 26 10 14 1019.8 1016.5 0.0
23/01:30pm 25.0 17.9 -4.3 14 12.9 ESE 24 33 13 18 1020.0 1016.7 0.0
23/01:00pm 23.2 16.6 -3.2 17 11.7 ESE 22 32 12 17 1020.4 1017.1 0.0
23/12:30pm 23.5 17.2 -3.7 16 12.0 SE 20 39 11 21 1020.6 1017.3 0.0
23/12:00pm 22.5 15.9 -3.7 17 11.4 ESE 22 33 12 18 1020.9 1017.7 0.0
23/11:30am 21.5 14.7 -1.7 21 10.4 SE 24 32 13 17 1021.5 1018.2 0.0
23/11:00am 20.7 13.4 -3.0 20 10.3 SE 26 33 14 18 1021.9 1018.6 0.0
23/10:30am 19.7 13.0 -1.4 24 9.4 ESE 24 35 13 19 1022.1 1018.9 0.0
23/10:00am 18.8 12.1 -1.1 26 8.8 ESE 24 33 13 18 1022.3 1019.1 0.0
23/09:30am 17.0 10.2 -1.6 28 8.1 SE 24 32 13 17 1022.5 1019.3 0.0
23/09:00am 16.1 9.4 -1.0 31 7.4 SE 24 35 13 19 1022.6 1019.4 0.0
23/08:30am 15.8 8.4 -0.4 33 7.1 SE 28 39 15 21 1022.7 1019.5 0.0
23/08:00am 14.2 6.8 -0.6 36 6.4 SE 28 35 15 19 1022.7 1019.5 0.0
23/07:30am 12.9 5.5 -0.7 39 5.8 SE 28 39 15 21 1022.6 1019.4 0.0
23/07:00am 12.5 5.9 -0.4 41 5.5 SE 24 32 13 17 1022.3 1019.1 0.0
23/06:30am 11.8 5.9 -1.0 41 5.3 SE 20 28 11 15 1022.0 1018.7 0.0
23/06:00am 11.4 5.7 -1.0 42 5.1 SE 19 24 10 13 1021.8 1018.5 0.0
23/05:30am 11.5 5.6 -0.9 42 5.2 SE 20 28 11 15 1021.5 1018.2 0.0
23/05:00am 11.9 5.2 -0.9 41 5.3 SSE 24 30 13 16 1021.1 1017.9 0.0
23/04:30am 12.0 5.7 -1.2 40 5.5 SSE 22 30 12 16 1020.8 1017.6 0.0
23/04:00am 12.4 4.9 -1.5 38 5.8 SSE 28 35 15 19 1020.6 1017.3 0.0
23/03:30am 12.9 6.1 -1.8 36 6.1 SSE 24 33 13 18 1020.3 1017.0 0.0
23/03:00am 13.3 6.9 -1.8 35 6.3 SSE 22 33 12 18 1020.3 1017.0 0.0
23/02:30am 13.5 5.9 -2.0 34 6.4 S 28 35 15 19 1020.4 1017.1 0.0
23/02:00am 13.6 7.5 -2.3 33 6.5 S 20 32 11 17 1020.7 1017.4 0.0
23/01:30am 13.9 7.4 -2.1 33 6.7 S 22 32 12 17 1020.7 1017.4 0.0
23/01:00am 14.5 7.7 -2.0 32 6.9 S 24 33 13 18 1020.9 1017.7 0.0
23/12:30am 14.8 8.7 -2.1 31 7.1 S 20 32 11 17 1021.4 1018.1 0.0
23/12:00am 15.6 8.0 -1.9 30 7.4 S 28 39 15 21 1021.4 1018.1 0.0
 
Date/Time
WST
Temp
°C
App
Temp
°C
Dew
Point
Rel
Hum
%
Delta-T
°C
Wind Press
QNH
hPa
Press
MSL
hPa
Rain
since 9 am
mm
Dir
 
Spd
km/h
Gust
km/h
Spd
kts
Gust
kts
22/11:30pm 15.7 9.9 -1.8 30 7.5 S 19 30 10 16 1021.6 1018.3 0.0
22/11:00pm 15.3 10.2 -1.7 31 7.2 S 15 22 8 12 1021.8 1018.5 0.0
22/10:30pm 15.2 10.6 -0.9 33 7.0 S 13 17 7 9 1021.9 1018.6 0.0
22/10:00pm 16.1 12.3 -0.6 32 7.3 S 9 11 5 6 1021.7 1018.4 0.0
22/09:30pm 16.9 11.6 -0.3 31 7.6 SSW 17 24 9 13 1021.7 1018.4 0.0
22/09:00pm 17.4 12.2 0.1 31 7.8 SSW 17 24 9 13 1021.5 1018.2 0.0
22/08:30pm 17.6 12.3 -0.6 29 8.1 SSW 17 22 9 12 1021.4 1018.1 0.0
22/08:00pm 17.2 12.6 -1.0 29 8.0 SW 13 15 7 8 1020.8 1017.6 0.0
22/07:30pm 18.2 14.0 -1.1 27 8.5 SSW 11 17 6 9 1020.5 1017.2 0.0
22/07:00pm 19.0 13.7 -0.9 26 8.9 SW 17 20 9 11 1020.2 1016.9 0.0
22/06:30pm 19.6 14.3 -0.9 25 9.2 SW 17 24 9 13 1019.6 1016.4 0.0
22/06:00pm 20.4 14.1 -0.8 24 9.6 WSW 22 28 12 15 1019.3 1016.0 0.0
22/05:30pm 21.3 14.7 -0.6 23 10.0 WSW 24 32 13 17 1019.1 1015.8 0.0
22/05:00pm 21.8 14.5 -0.2 23 10.2 WSW 28 37 15 20 1018.9 1015.6 0.0
22/04:30pm 22.4 16.1 -1.0 21 10.7 WSW 22 32 12 17 1018.7 1015.4 0.0
22/04:06pm 22.8 15.5 0.0 22 10.7 WSW 28 54 15 29 1018.6 1015.3 0.0
22/04:00pm 22.6 16.0 -0.2 22 10.6 WSW 24 35 13 19 1018.6 1015.3 0.0
22/03:30pm 22.6 14.9 -0.2 22 10.6 WSW 30 33 16 18 1018.5 1015.2 0.0
22/03:00pm 22.4 13.7 -0.3 22 10.5 SSW 35 48 19 26 1018.4 1015.1 0.0
22/02:30pm 23.1 14.6 -1.8 19 11.3 SW 33 46 18 25 1018.4 1015.1 0.0
22/02:00pm 22.6 14.3 -1.5 20 10.9 SW 32 50 17 27 1018.4 1015.1 0.0
22/01:56pm 22.9 14.6 -1.9 19 11.2 SW 32 50 17 27 1018.4 1015.1 0.0
22/01:30pm 22.7 14.2 -2.1 19 11.2 SW 33 44 18 24 1018.4 1015.1 0.0
22/01:00pm 22.1 13.8 -0.6 22 10.5 SW 33 43 18 23 1018.5 1015.2 0.0
22/12:30pm 21.0 14.1 0.2 25 9.7 SW 26 35 14 19 1019.0 1015.7 0.0
22/12:15pm 20.7 14.2 0.5 26 9.4 SSW 24 30 13 16 1019.1 1015.8 0.0
22/12:06pm 20.9 11.9 0.2 25 9.6 WSW 37 41 20 22 1019.2 1015.9 0.0
22/12:00pm 20.3 12.4 1.2 28 9.0 SSW 32 37 17 20 1019.3 1016.0 0.0
22/11:30am 20.1 12.2 1.0 28 8.9 SW 32 44 17 24 1019.6 1016.4 0.0
22/11:14am 19.9 12.8 1.4 29 8.7 SW 28 46 15 25 1019.8 1016.5 0.0
22/11:00am 18.8 11.4 1.8 32 8.0 SW 30 44 16 24 1020.1 1016.8 0.0
22/10:30am 18.8 10.4 1.8 32 8.0 SW 35 48 19 26 1020.3 1017.0 0.0
22/10:00am 18.0 10.4 2.7 36 7.3 SW 32 41 17 22 1020.7 1017.4 0.0
22/09:30am 17.1 9.3 1.5 35 7.2 SSW 32 41 17 22 1020.9 1017.7 0.0
22/09:00am 16.2 8.6 2.6 40 6.4 WSW 32 43 17 23 1021.1 1017.9 0.0
22/08:30am 15.4 8.6 3.2 44 5.8 WSW 28 35 15 19 1021.0 1017.8 0.0
22/08:00am 14.2 6.1 3.4 48 5.1 WSW 35 44 19 24 1020.3 1017.0 0.0
22/07:30am 13.5 5.3 4.9 56 4.1 SW 37 46 20 25 1020.4 1017.1 0.0
22/07:00am 13.1 5.7 5.0 58 3.9 WSW 33 41 18 22 1020.4 1017.1 0.0
22/06:30am 12.6 6.3 5.5 62 3.4 WSW 28 37 15 20 1020.0 1016.7 0.0
22/06:00am 12.7 6.4 5.8 63 3.4 WSW 28 33 15 18 1019.8 1016.5 0.0
22/05:30am 13.2 6.7 6.3 63 3.4 WSW 30 43 16 23 1019.4 1016.1 0.0
22/05:00am 13.5 8.1 8.1 70 2.8 WSW 26 32 14 17 1019.2 1015.9 0.0
22/04:45am 13.8 9.2 9.5 75 2.3 WSW 24 32 13 17 1019.1 1015.8 0.0
22/04:30am 14.1 7.7 9.3 73 2.5 WSW 33 44 18 24 1018.9 1015.6 0.0
22/04:13am 14.3 8.1 9.9 75 2.4 WSW 33 52 18 28 1018.8 1015.5 0.0
22/04:00am 14.2 7.8 10.8 80 1.9 SW 35 46 19 25 1018.7 1015.4 0.0
22/03:41am 14.9 9.4 11.7 81 1.8 WSW 32 50 17 27 1018.5 1015.2 0.0
22/03:30am 15.4 8.9 11.6 78 2.1 WSW 37 48 20 26 1018.5 1015.2 0.0
22/03:00am 16.7 10.5 12.5 76 2.4 WSW 37 50 20 27 1017.9 1014.6 0.0
22/02:30am 18.0 12.3 12.9 72 3.0 WSW 35 44 19 24 1017.7 1014.4 0.0
22/02:10am 18.7 14.0 13.1 70 3.3 WSW 30 48 16 26 1017.5 1014.2 0.0
22/02:00am 19.1 14.9 13.5 70 3.3 WSW 28 39 15 21 1017.7 1014.4 0.0
22/01:30am 19.3 14.4 13.7 70 3.3 WSW 32 41 17 22 1017.8 1014.5 0.0
22/01:00am 20.2 14.4 12.7 62 4.4 WSW 35 48 19 26 1017.8 1014.5 0.0
22/12:30am 21.6 16.1 10.7 50 6.2 W 30 39 16 21 1017.7 1014.4 0.0
22/12:00am 22.5 17.3 10.3 46 6.9 W 28 39 15 21 1017.7 1014.4 0.0
 
Date/Time
WST
Temp
°C
App
Temp
°C
Dew
Point
Rel
Hum
%
Delta-T
°C
Wind Press
QNH
hPa
Press
MSL
hPa
Rain
since 9 am
mm
Dir
 
Spd
km/h
Gust
km/h
Spd
kts
Gust
kts
21/11:30pm 23.3 19.8 7.4 36 8.6 W 15 24 8 13 1017.8 1014.5 0.0
21/11:00pm 24.0 19.6 7.2 34 9.1 WNW 20 30 11 16 1017.7 1014.4 0.0
21/10:30pm 24.7 20.1 6.4 31 9.8 WNW 20 33 11 18 1017.9 1014.6 0.0
21/10:00pm 25.2 20.1 5.9 29 10.2 W 22 30 12 16 1018.1 1014.8 0.0
21/09:30pm 25.8 19.9 5.9 28 10.6 WNW 26 37 14 20 1018.3 1015.0 0.0
21/09:00pm 26.6 20.8 6.1 27 11.0 WNW 26 37 14 20 1018.0 1014.7 0.0
21/08:30pm 27.2 22.1 3.0 21 12.4 WNW 19 28 10 15 1017.8 1014.5 0.0
21/08:00pm 27.7 22.3 2.7 20 12.7 WNW 20 28 11 15 1017.4 1014.1 0.0
21/07:30pm 28.4 23.2 2.6 19 13.2 WNW 19 26 10 14 1017.1 1013.8 0.0
21/07:00pm 29.1 23.3 2.4 18 13.6 WNW 22 37 12 20 1016.7 1013.3 0.0
21/06:30pm 29.5 23.9 0.2 15 14.5 NW 19 30 10 16 1016.1 1012.8 0.0
21/06:00pm 30.3 23.7 -0.1 14 15.0 NNW 24 33 13 18 1015.7 1012.4 0.0
21/05:30pm 31.0 24.8 -0.6 13 15.5 NW 22 35 12 19 1015.5 1012.1 0.0
21/05:00pm 32.1 24.7 -0.9 12 16.3 NW 28 46 15 25 1015.3 1011.9 0.0
21/04:30pm 32.7 25.2 -1.6 11 16.8 NW 28 44 15 24 1015.3 1011.9 0.0
21/04:00pm 32.8 26.6 -0.3 12 16.6 NNW 22 39 12 21 1015.2 1011.8 0.0
21/03:52pm 32.2 24.8 -0.8 12 16.3 NNW 28 46 15 25 1015.3 1011.9 0.0
21/03:30pm 32.7 25.7 -0.4 12 16.5 N 26 48 14 26 1015.3 1011.9 0.0
21/03:29pm 32.7 25.3 -0.4 12 16.5 N 28 48 15 26 1015.3 1011.9 0.0
21/03:00pm 34.0 27.4 -0.6 11 17.3 NW 24 39 13 21 1015.4 1012.0 0.0
21/02:31pm 34.0 26.6 -0.6 11 17.4 N 28 46 15 25 1015.6 1012.2 0.0
21/02:30pm 34.0 26.2 -0.6 11 17.4 N 30 46 16 25 1015.6 1012.2 0.0
21/02:23pm 33.4 26.0 -1.0 11 17.1 N 28 50 15 27 1015.7 1012.4 0.0
21/02:00pm 33.3 26.0 0.1 12 16.8 NW 28 41 15 22 1016.1 1012.8 0.0
21/01:54pm 33.6 26.3 0.3 12 16.9 N 28 46 15 25 1016.0 1012.7 0.0
21/01:30pm 32.2 25.7 0.3 13 16.1 NNW 24 44 13 24 1016.7 1013.3 0.0
21/01:00pm 32.7 25.7 -0.4 12 16.5 NW 26 37 14 20 1017.3 1014.0 0.0
21/12:32pm 33.0 25.7 -0.2 12 16.7 NNW 28 46 15 25 1017.9 1014.6 0.0
21/12:30pm 33.0 25.9 -1.4 11 16.9 N 26 46 14 25 1017.9 1014.6 0.0
21/12:27pm 33.6 26.2 -0.9 11 17.2 N 28 46 15 25 1018.0 1014.7 0.0
21/12:00pm 32.3 26.8 0.4 13 16.1 NNW 19 41 10 22 1018.6 1015.3 0.0
21/11:30am 31.2 26.1 0.6 14 15.4 N 17 32 9 17 1019.1 1015.8 0.0
21/11:00am 30.7 25.2 2.0 16 14.7 WNW 20 30 11 16 1019.6 1016.4 0.0
21/10:30am 29.2 25.5 4.6 21 13.1 WSW 13 19 7 10 1020.3 1017.0 0.0
21/10:00am 28.5 24.2 5.4 23 12.4 W 17 28 9 15 1020.7 1017.4 0.0
21/09:30am 27.5 23.0 6.3 26 11.5 WSW 19 26 10 14 1021.1 1017.9 0.0
21/09:00am 26.8 21.7 6.2 27 11.1 WSW 22 32 12 17 1021.3 1018.0 0.0
21/08:30am 25.7 22.8 6.3 29 10.4 WSW 11 19 6 10 1021.0 1017.8 0.0
21/08:00am 23.3 21.7 4.3 29 9.7 E 2 7 1 4 1020.9 1017.7 0.0
21/07:30am 20.6 18.9 2.0 29 8.9 CALM 0 6 0 3 1020.7 1017.4 0.0
21/07:00am 17.6 15.5 1.6 34 7.4 E 2 7 1 4 1020.4 1017.1 0.0
21/06:30am 15.1 12.1 0.9 38 6.4 E 6 9 3 5 1019.9 1016.6 0.0

Other Formats:

Comma delimited format used in spreadsheet applications
http://www.bom.gov.au/fwo/IDW60801/IDW60801.99312.axf

JavaScript Object Notation format (JSON) in row-major order
http://www.bom.gov.au/fwo/IDW60801/IDW60801.99312.json